createdAt,value
2023-04-07T00:00:24.472Z,7.32
2023-04-07T00:02:51.815Z,14.65
2023-04-07T00:05:21.584Z,12.87
2023-04-07T00:07:56.450Z,13.70
2023-04-07T00:10:25.020Z,7.88
2023-04-07T00:12:51.742Z,9.18
2023-04-07T00:15:23.046Z,12.35
2023-04-07T00:17:49.591Z,11.90
2023-04-07T00:20:18.656Z,9.90
2023-04-07T00:22:47.964Z,13.02
2023-04-07T00:25:14.606Z,11.95
2023-04-07T00:27:45.998Z,15.20
2023-04-07T00:30:12.684Z,10.95
2023-04-07T00:32:39.181Z,11.07
2023-04-07T00:35:08.790Z,11.38
2023-04-07T00:37:35.330Z,11.50
2023-04-07T00:40:04.509Z,10.20
2023-04-07T00:42:33.234Z,11.82
2023-04-07T00:44:59.765Z,10.88
2023-04-07T00:47:26.300Z,11.02
2023-04-07T00:49:57.684Z,15.20
2023-04-07T00:52:30.222Z,12.98
2023-04-07T00:55:02.108Z,12.45
2023-04-07T00:57:29.443Z,14.40
2023-04-07T00:59:56.367Z,16.60
2023-04-07T01:02:40.887Z,12.13
2023-04-07T01:05:16.168Z,14.05
2023-04-07T01:07:53.195Z,15.02
2023-04-07T01:10:34.000Z,10.80
2023-04-07T01:13:25.405Z,13.75
2023-04-07T01:15:57.078Z,15.00
2023-04-07T01:18:34.666Z,16.23
2023-04-07T01:21:05.909Z,15.75
2023-04-07T01:24:00.118Z,12.48
2023-04-07T01:26:33.498Z,11.70
2023-04-07T01:29:18.942Z,12.85
2023-04-07T01:31:47.805Z,14.10
2023-04-07T01:34:15.469Z,10.95
2023-04-07T01:36:43.992Z,14.48
2023-04-07T01:39:18.900Z,18.17
2023-04-07T01:41:46.114Z,20.50
2023-04-07T01:44:14.494Z,11.70
2023-04-07T01:46:43.742Z,11.30
2023-04-07T01:49:12.551Z,16.38
2023-04-07T01:51:44.908Z,11.93
2023-04-07T01:54:13.932Z,15.43
2023-04-07T01:56:40.883Z,13.43
2023-04-07T01:59:07.435Z,16.67
2023-04-07T02:01:34.264Z,19.90
2023-04-07T02:04:30.940Z,16.95
2023-04-07T02:07:04.128Z,14.85
2023-04-07T02:09:35.435Z,13.55
2023-04-07T02:12:06.503Z,17.13
2023-04-07T02:14:33.900Z,15.00
2023-04-07T02:17:03.899Z,18.03
2023-04-07T02:19:30.552Z,19.55
2023-04-07T02:22:01.465Z,17.60
2023-04-07T02:24:27.974Z,18.15
2023-04-07T02:26:54.432Z,15.07
2023-04-07T02:29:20.964Z,19.27
2023-04-07T02:31:47.497Z,12.90
2023-04-07T02:34:18.607Z,16.73
2023-04-07T02:36:45.163Z,19.60
2023-04-07T02:39:11.625Z,18.63
2023-04-07T02:41:38.163Z,16.77
2023-04-07T02:44:04.657Z,14.90
2023-04-07T02:46:33.378Z,15.93
2023-04-07T02:48:59.894Z,19.77
2023-04-07T02:51:27.133Z,15.35
2023-04-07T02:53:53.976Z,21.65
2023-04-07T02:56:20.790Z,18.15
2023-04-07T02:58:51.815Z,19.95
2023-04-07T03:01:18.299Z,19.08
2023-04-07T03:03:48.136Z,15.93
2023-04-07T03:06:14.685Z,14.23
2023-04-07T03:08:44.053Z,16.05
2023-04-07T03:11:10.877Z,14.20
2023-04-07T03:13:39.972Z,17.83
2023-04-07T03:16:06.620Z,12.93
2023-04-07T03:18:35.748Z,15.82
2023-04-07T03:21:02.245Z,11.43
2023-04-07T03:23:29.511Z,12.73
2023-04-07T03:25:58.362Z,14.25
2023-04-07T03:28:24.947Z,14.95
2023-04-07T03:30:51.456Z,8.45
2023-04-07T03:33:20.918Z,14.10
2023-04-07T03:35:47.476Z,11.23
2023-04-07T03:38:14.101Z,11.70
2023-04-07T03:40:42.720Z,13.45
2023-04-07T03:43:13.981Z,16.17
2023-04-07T03:45:43.204Z,15.35
2023-04-07T03:48:12.061Z,18.23
2023-04-07T03:50:42.585Z,11.80
2023-04-07T03:53:14.599Z,16.40
2023-04-07T03:55:43.636Z,15.63
2023-04-07T03:58:12.781Z,13.13
2023-04-07T04:00:39.360Z,10.15
2023-04-07T04:03:06.171Z,13.15
2023-04-07T04:05:32.699Z,11.45
2023-04-07T04:07:59.514Z,13.20
2023-04-07T04:10:26.010Z,15.50
2023-04-07T04:12:54.804Z,11.32
2023-04-07T04:15:21.326Z,14.27
2023-04-07T04:17:50.099Z,11.65
2023-04-07T04:20:22.206Z,13.25
2023-04-07T04:22:53.462Z,17.35
2023-04-07T04:25:20.649Z,15.90
2023-04-07T04:27:49.561Z,16.00
2023-04-07T04:30:16.131Z,11.90
2023-04-07T04:32:44.719Z,10.77
2023-04-07T04:35:13.520Z,13.25
2023-04-07T04:37:39.982Z,12.98
2023-04-07T04:40:08.609Z,16.58
2023-04-07T04:42:37.950Z,12.98
2023-04-07T04:45:04.834Z,12.40
2023-04-07T04:47:33.878Z,8.93
2023-04-07T04:50:00.527Z,15.75
2023-04-07T04:52:29.237Z,14.75
2023-04-07T04:54:58.401Z,8.15
2023-04-07T04:57:24.900Z,14.65
2023-04-07T04:59:53.860Z,14.30
2023-04-07T05:02:23.199Z,9.32
2023-04-07T05:04:50.031Z,13.73
2023-04-07T05:07:16.635Z,8.68
2023-04-07T05:09:47.997Z,9.25
2023-04-07T05:12:17.284Z,9.65
2023-04-07T05:14:43.846Z,16.13
2023-04-07T05:17:13.270Z,9.70
2023-04-07T05:19:39.849Z,7.57
2023-04-07T05:22:08.784Z,12.00
2023-04-07T05:24:37.519Z,7.15
2023-04-07T05:27:04.089Z,6.10
2023-04-07T05:29:33.551Z,7.05
2023-04-07T05:32:02.493Z,6.80
2023-04-07T05:34:31.456Z,8.60
2023-04-07T05:37:00.303Z,7.63
2023-04-07T05:39:28.980Z,7.95
2023-04-07T05:41:56.599Z,7.93
2023-04-07T05:44:23.087Z,14.55
2023-04-07T05:46:52.293Z,8.13
2023-04-07T05:49:21.954Z,7.97
2023-04-07T05:51:49.198Z,8.45
2023-04-07T05:54:15.995Z,5.53
2023-04-07T05:56:42.463Z,7.32
2023-04-07T05:59:09.915Z,4.82
2023-04-07T06:01:39.060Z,7.18
2023-04-07T06:04:07.872Z,11.52
2023-04-07T06:06:34.346Z,11.40
2023-04-07T06:09:00.802Z,6.32
2023-04-07T06:11:29.551Z,6.93
2023-04-07T06:13:58.482Z,8.38
2023-04-07T06:16:27.589Z,5.95
2023-04-07T06:18:56.226Z,12.90
2023-04-07T06:21:22.707Z,4.70
2023-04-07T06:23:51.550Z,9.65
2023-04-07T06:26:18.237Z,9.88
2023-04-07T06:28:47.565Z,5.45
2023-04-07T06:31:14.040Z,8.55
2023-04-07T06:33:40.653Z,9.35
2023-04-07T06:36:09.392Z,5.78
2023-04-07T06:38:36.244Z,10.25
2023-04-07T06:41:05.464Z,7.40
2023-04-07T06:43:34.370Z,7.50
2023-04-07T06:46:01.116Z,11.05
2023-04-07T06:48:30.332Z,8.45
2023-04-07T06:50:59.012Z,5.88
2023-04-07T06:53:27.899Z,12.05
2023-04-07T06:56:09.267Z,5.78
2023-04-07T06:58:36.899Z,11.35
2023-04-07T07:01:06.533Z,7.80
2023-04-07T07:03:33.813Z,6.57
2023-04-07T07:06:03.606Z,7.90
2023-04-07T07:08:32.820Z,9.13
2023-04-07T07:10:59.594Z,8.18
2023-04-07T07:13:26.996Z,6.57
2023-04-07T07:15:56.288Z,6.20
2023-04-07T07:18:22.895Z,7.28
2023-04-07T07:20:49.756Z,8.27
2023-04-07T07:23:18.576Z,7.10
2023-04-07T07:25:47.790Z,8.95
2023-04-07T07:28:16.684Z,5.93
2023-04-07T07:30:46.400Z,10.13
2023-04-07T07:33:15.384Z,12.90
2023-04-07T07:35:41.957Z,8.25
2023-04-07T07:38:08.517Z,7.15
2023-04-07T07:40:35.093Z,8.77
2023-04-07T07:43:01.516Z,8.35
2023-04-07T07:45:28.036Z,12.52
2023-04-07T07:47:54.579Z,10.40
2023-04-07T07:50:21.414Z,11.88
2023-04-07T07:52:47.869Z,10.20
2023-04-07T07:55:14.465Z,9.98
2023-04-07T07:57:41.026Z,8.35
2023-04-07T08:00:08.277Z,11.88
2023-04-07T08:02:36.543Z,12.07
2023-04-07T08:05:05.683Z,7.22
2023-04-07T08:07:32.336Z,8.20
2023-04-07T08:09:58.873Z,11.90
2023-04-07T08:12:27.868Z,7.63
2023-04-07T08:14:56.760Z,10.73
2023-04-07T08:17:25.849Z,14.65
2023-04-07T08:19:52.414Z,12.90
2023-04-07T08:22:21.062Z,14.15
2023-04-07T08:24:49.984Z,16.33
2023-04-07T08:27:16.506Z,9.02
2023-04-07T08:29:45.068Z,8.85
2023-04-07T08:32:16.655Z,13.48
2023-04-07T08:34:43.067Z,6.57
2023-04-07T08:37:09.635Z,7.93
2023-04-07T08:39:39.090Z,12.10
2023-04-07T08:42:07.403Z,9.18
2023-04-07T08:47:01.867Z,7.78
2023-04-07T08:49:29.904Z,6.82
2023-04-07T08:51:59.020Z,8.23
2023-04-07T08:54:29.004Z,10.05
2023-04-07T08:56:56.038Z,6.53
2023-04-07T08:59:26.762Z,11.75
2023-04-07T09:01:59.410Z,11.23
2023-04-07T09:04:28.474Z,7.75
2023-04-07T09:06:54.952Z,12.27
2023-04-07T09:09:21.488Z,12.45
2023-04-07T09:11:53.224Z,5.65
2023-04-07T09:14:23.908Z,10.23
2023-04-07T09:16:50.472Z,8.07
2023-04-07T09:19:16.997Z,9.38
2023-04-07T09:21:51.435Z,9.50
2023-04-07T09:24:31.887Z,5.80
2023-04-07T09:27:19.139Z,7.55
2023-04-07T09:29:47.788Z,5.78
2023-04-07T09:32:41.490Z,9.15
2023-04-07T09:35:08.579Z,9.90
2023-04-07T09:37:35.722Z,3.88
2023-04-07T09:40:05.266Z,6.53
2023-04-07T09:42:36.844Z,11.32
2023-04-07T09:45:03.725Z,8.90
2023-04-07T09:47:33.899Z,10.00
2023-04-07T09:50:06.715Z,5.25
2023-04-07T09:52:52.405Z,10.05
2023-04-07T09:55:24.791Z,3.65
2023-04-07T09:57:52.389Z,7.10
2023-04-07T10:00:19.423Z,7.25
2023-04-07T10:02:46.684Z,6.53
2023-04-07T10:05:13.700Z,5.80
2023-04-07T10:07:43.321Z,5.60
2023-04-07T10:10:10.387Z,9.90
2023-04-07T10:12:44.202Z,7.88
2023-04-07T10:15:16.075Z,7.53
2023-04-07T10:17:49.344Z,5.07
2023-04-07T10:20:25.414Z,5.13
2023-04-07T10:22:56.310Z,6.28
2023-04-07T10:25:26.313Z,9.13
2023-04-07T10:28:00.400Z,5.07
2023-04-07T10:30:30.413Z,4.68
2023-04-07T10:32:57.177Z,7.55
2023-04-07T10:35:24.303Z,5.95
2023-04-07T10:38:14.137Z,4.03
2023-04-07T10:40:41.816Z,5.55
2023-04-07T10:43:11.203Z,6.22
2023-04-07T10:45:56.093Z,6.38
2023-04-07T10:48:23.112Z,2.70
2023-04-07T10:51:04.956Z,8.43
2023-04-07T10:53:34.823Z,12.43
2023-04-07T10:56:04.465Z,6.47
2023-04-07T10:58:37.373Z,3.85
2023-04-07T11:01:06.732Z,6.13
2023-04-07T11:03:39.022Z,5.82
2023-04-07T11:06:08.516Z,5.20
2023-04-07T11:08:35.958Z,12.93
2023-04-07T11:11:03.601Z,6.70
2023-04-07T11:13:47.204Z,5.90
2023-04-07T11:16:19.340Z,2.83
2023-04-07T11:18:49.750Z,6.30
2023-04-07T11:21:22.259Z,6.45
2023-04-07T11:23:55.988Z,5.55
2023-04-07T11:26:23.613Z,3.22
2023-04-07T11:28:54.548Z,9.50
2023-04-07T11:31:25.139Z,4.95
2023-04-07T11:33:56.763Z,8.88
2023-04-07T11:36:33.621Z,6.38
2023-04-07T11:39:03.148Z,4.68
2023-04-07T11:41:45.735Z,6.03
2023-04-07T11:44:12.786Z,6.00
2023-04-07T11:46:59.709Z,6.20
2023-04-07T11:49:28.349Z,3.87
2023-04-07T11:52:03.209Z,4.15
2023-04-07T11:54:43.375Z,9.32
2023-04-07T11:57:12.528Z,4.22
2023-04-07T11:59:43.716Z,3.53
2023-04-07T12:02:14.478Z,4.90
2023-04-07T12:04:57.224Z,3.80
2023-04-07T12:07:24.336Z,5.25
2023-04-07T12:09:51.419Z,4.15
2023-04-07T12:12:27.255Z,5.10
2023-04-07T12:14:56.713Z,5.60
2023-04-07T12:17:24.565Z,5.32
2023-04-07T12:19:51.279Z,4.22
2023-04-07T12:22:18.247Z,3.85
2023-04-07T12:24:44.931Z,4.47
2023-04-07T12:27:13.610Z,7.78
2023-04-07T12:29:43.852Z,10.13
2023-04-07T12:32:10.500Z,4.57
2023-04-07T12:34:39.905Z,5.07
2023-04-07T12:37:06.447Z,7.30
2023-04-07T12:39:35.527Z,6.00
2023-04-07T12:42:05.154Z,6.95
2023-04-07T12:44:31.669Z,5.65
2023-04-07T12:46:58.110Z,5.22
2023-04-07T12:49:27.234Z,4.50
2023-04-07T12:51:56.574Z,5.80
2023-04-07T12:54:23.092Z,28.23
2023-04-07T12:56:52.762Z,67.43
2023-04-07T12:59:19.252Z,37.38
2023-04-07T13:01:47.709Z,18.60
2023-04-07T13:04:15.821Z,13.57
2023-04-07T13:06:42.551Z,10.52
2023-04-07T13:09:09.127Z,6.53
2023-04-07T13:11:37.860Z,5.22
2023-04-07T13:14:04.341Z,10.52
2023-04-07T13:16:30.889Z,5.05
2023-04-07T13:18:57.474Z,5.70
2023-04-07T13:23:56.013Z,5.30
2023-04-07T13:26:22.730Z,3.92
2023-04-07T13:28:49.176Z,5.70
2023-04-07T13:31:18.135Z,10.52
2023-04-07T13:33:45.323Z,8.48
2023-04-07T13:36:11.778Z,3.53
2023-04-07T13:38:42.366Z,3.03
2023-04-07T13:41:10.873Z,8.73
2023-04-07T13:43:37.324Z,11.93
2023-04-07T13:46:06.318Z,5.35
2023-04-07T13:48:38.501Z,4.50
2023-04-07T13:51:07.316Z,5.15
2023-04-07T13:53:36.324Z,4.80
2023-04-07T13:56:08.311Z,12.15
2023-04-07T13:58:35.523Z,6.45
2023-04-07T14:01:02.935Z,11.13
2023-04-07T14:03:31.913Z,9.60
2023-04-07T14:06:03.094Z,9.50
2023-04-07T14:08:29.692Z,6.70
2023-04-07T14:10:56.233Z,8.73
2023-04-07T14:13:25.223Z,8.18
2023-04-07T14:15:54.413Z,6.70
2023-04-07T14:18:21.068Z,12.88
2023-04-07T14:20:47.621Z,6.93
2023-04-07T14:23:16.644Z,7.20
2023-04-07T14:25:51.761Z,6.82
2023-04-07T14:28:18.250Z,6.38
2023-04-07T14:30:44.864Z,6.95
2023-04-07T14:33:11.601Z,9.02
2023-04-07T14:35:38.550Z,4.18
2023-04-07T14:38:05.203Z,3.47
2023-04-07T14:40:31.687Z,9.38
2023-04-07T14:45:33.216Z,2.80
2023-04-07T14:47:59.690Z,6.32
2023-04-07T14:50:29.056Z,6.25
2023-04-07T14:52:58.976Z,6.93
2023-04-07T14:55:27.829Z,3.60
2023-04-07T14:57:54.279Z,6.03
2023-04-07T15:00:25.344Z,4.20
2023-04-07T15:02:54.364Z,7.07
2023-04-07T15:05:25.973Z,8.05
2023-04-07T15:07:52.567Z,6.93
2023-04-07T15:10:19.633Z,4.63
2023-04-07T15:12:51.145Z,5.53
2023-04-07T15:15:19.918Z,8.68
2023-04-07T15:17:46.822Z,6.80
2023-04-07T15:20:15.668Z,3.95
2023-04-07T15:22:42.244Z,8.98
2023-04-07T15:25:08.844Z,6.47
2023-04-07T15:27:37.923Z,7.13
2023-04-07T15:30:04.562Z,8.85
2023-04-07T15:32:31.915Z,8.15
2023-04-07T15:35:01.628Z,10.27
2023-04-07T15:37:28.291Z,10.55
2023-04-07T15:39:54.743Z,8.68
2023-04-07T15:42:23.784Z,16.38
2023-04-07T15:44:51.054Z,10.65
2023-04-07T15:47:17.609Z,8.37
2023-04-07T15:49:49.069Z,9.43
2023-04-07T15:52:15.594Z,7.88
2023-04-07T15:54:42.216Z,11.95
2023-04-07T15:57:08.722Z,8.18
2023-04-07T15:59:39.766Z,11.65
2023-04-07T16:02:08.732Z,6.88
2023-04-07T16:04:37.951Z,8.00
2023-04-07T16:07:04.426Z,7.03
2023-04-07T16:09:33.961Z,9.98
2023-04-07T16:12:03.225Z,5.50
2023-04-07T16:14:32.101Z,8.55
2023-04-07T16:17:03.623Z,8.43
2023-04-07T16:19:30.336Z,5.20
2023-04-07T16:21:56.824Z,10.82
2023-04-07T16:24:25.660Z,11.65
2023-04-07T16:26:52.482Z,7.93
2023-04-07T16:29:20.218Z,8.95
2023-04-07T16:31:49.202Z,11.30
2023-04-07T16:34:17.716Z,7.20
2023-04-07T16:36:44.685Z,6.13
2023-04-07T16:39:11.332Z,7.85
2023-04-07T16:41:40.485Z,7.68
2023-04-07T16:44:07.336Z,10.52
2023-04-07T16:46:36.502Z,9.95
2023-04-07T16:49:05.079Z,5.95
2023-04-07T16:51:33.780Z,7.10
2023-04-07T16:54:02.843Z,7.50
2023-04-07T16:56:31.825Z,8.88
2023-04-07T16:58:58.324Z,11.00
2023-04-07T17:01:26.516Z,9.20
2023-04-07T17:06:19.966Z,14.80
2023-04-07T17:08:48.881Z,9.57
2023-04-07T17:11:18.812Z,6.40
2023-04-07T17:13:48.420Z,7.82
2023-04-07T17:16:15.218Z,9.27
2023-04-07T17:18:42.211Z,5.75
2023-04-07T17:21:08.704Z,7.15
2023-04-07T17:23:38.311Z,9.30
2023-04-07T17:26:04.966Z,10.10
2023-04-07T17:28:31.824Z,8.52
2023-04-07T17:31:02.159Z,8.00
2023-04-07T17:33:30.525Z,8.48
2023-04-07T17:35:57.606Z,12.15
2023-04-07T17:38:26.358Z,11.38
2023-04-07T17:41:01.735Z,10.45
2023-04-07T17:43:30.877Z,9.45
2023-04-07T17:45:59.571Z,9.68
2023-04-07T17:48:28.478Z,9.48
2023-04-07T17:50:54.965Z,9.63
2023-04-07T17:53:24.297Z,11.73
2023-04-07T17:55:50.780Z,8.02
2023-04-07T17:58:19.975Z,14.55
2023-04-07T18:00:46.506Z,16.05
2023-04-07T18:03:14.707Z,11.38
2023-04-07T18:05:47.096Z,16.02
2023-04-07T18:08:16.020Z,14.65
2023-04-07T18:10:45.204Z,11.68
2023-04-07T18:13:11.661Z,11.13
2023-04-07T18:15:40.590Z,16.23
2023-04-07T18:18:07.506Z,15.05
2023-04-07T18:20:33.986Z,23.67
2023-04-07T18:23:00.500Z,14.70
2023-04-07T18:25:31.564Z,9.60
2023-04-07T18:28:01.994Z,14.52
2023-04-07T18:30:28.627Z,19.23
2023-04-07T18:32:55.290Z,16.80
2023-04-07T18:35:23.862Z,12.48
2023-04-07T18:37:50.414Z,17.05
2023-04-07T18:40:17.049Z,16.83
2023-04-07T18:42:45.900Z,15.35
2023-04-07T18:45:12.357Z,16.63
2023-04-07T18:47:39.054Z,20.10
2023-04-07T18:50:06.922Z,15.35
2023-04-07T18:52:33.489Z,16.20
2023-04-07T18:55:00.125Z,15.10
2023-04-07T18:57:29.304Z,16.13
2023-04-07T19:00:00.386Z,15.50
2023-04-07T19:02:29.716Z,16.20
2023-04-07T19:04:58.525Z,17.83
2023-04-07T19:07:25.001Z,17.08
2023-04-07T19:09:53.798Z,16.85
2023-04-07T19:12:22.593Z,16.75
2023-04-07T19:14:49.162Z,16.83
2023-04-07T19:17:16.337Z,15.57
2023-04-07T19:19:45.999Z,15.18
2023-04-07T19:22:17.020Z,16.55
2023-04-07T19:24:46.308Z,19.45
2023-04-07T19:27:14.616Z,20.45
2023-04-07T19:32:12.772Z,19.75
2023-04-07T19:34:39.602Z,24.27
2023-04-07T19:37:06.164Z,21.95
2023-04-07T19:39:32.622Z,22.33
2023-04-07T19:41:59.086Z,21.27
2023-04-07T19:44:26.002Z,21.50
2023-04-07T19:46:53.445Z,20.58
2023-04-07T19:49:19.964Z,21.93
2023-04-07T19:51:47.189Z,22.48
2023-04-07T19:54:16.302Z,23.85
2023-04-07T19:56:45.433Z,29.35
2023-04-07T19:59:11.962Z,24.20
2023-04-07T20:01:41.187Z,25.55
2023-04-07T20:04:12.804Z,27.40
2023-04-07T20:06:40.509Z,26.67
2023-04-07T20:09:11.589Z,26.30
2023-04-07T20:11:38.075Z,19.52
2023-04-07T20:14:04.604Z,25.88
2023-04-07T20:16:36.849Z,20.67
2023-04-07T20:19:08.035Z,22.42
2023-04-07T20:21:35.921Z,22.17
2023-04-07T20:24:05.225Z,25.52
2023-04-07T20:26:31.734Z,24.77
2023-04-07T20:28:58.262Z,26.52
2023-04-07T20:31:25.239Z,28.92
2023-04-07T20:33:52.009Z,28.02
2023-04-07T20:36:21.408Z,21.70
2023-04-07T20:38:54.113Z,21.30
2023-04-07T20:41:22.352Z,23.33
2023-04-07T20:46:17.782Z,27.90
2023-04-07T20:48:44.334Z,25.33
2023-04-07T20:51:13.632Z,24.20
2023-04-07T20:53:42.405Z,23.13
2023-04-07T20:56:11.534Z,29.63
2023-04-07T20:58:40.099Z,25.17
2023-04-07T21:01:08.898Z,23.70
2023-04-07T21:03:36.509Z,26.63
2023-04-07T21:06:05.113Z,32.20
2023-04-07T21:08:31.687Z,23.23
2023-04-07T21:10:58.360Z,27.10
2023-04-07T21:13:29.153Z,26.75
2023-04-07T21:15:57.367Z,26.30
2023-04-07T21:20:50.485Z,30.70
2023-04-07T21:23:16.987Z,21.30
2023-04-07T21:25:43.528Z,17.17
2023-04-07T21:28:10.328Z,22.23
2023-04-07T21:30:43.938Z,20.52
2023-04-07T21:33:13.557Z,17.58
2023-04-07T21:35:45.835Z,18.17
2023-04-07T21:38:13.205Z,18.55
2023-04-07T21:40:42.013Z,17.80
2023-04-07T21:43:08.613Z,20.45
2023-04-07T21:45:35.342Z,22.95
2023-04-07T21:48:02.553Z,17.83
2023-04-07T21:50:29.411Z,18.42
2023-04-07T21:52:58.047Z,36.80
2023-04-07T21:55:27.335Z,109.28
2023-04-07T21:57:55.859Z,99.25
2023-04-07T22:00:22.466Z,179.55
2023-04-07T22:02:49.792Z,228.18
2023-04-07T22:05:16.726Z,124.35
2023-04-07T22:07:44.877Z,146.75
2023-04-07T22:10:13.917Z,140.50
2023-04-07T22:12:43.281Z,49.85
2023-04-07T22:15:11.755Z,79.43
2023-04-07T22:17:39.931Z,58.10
2023-04-07T22:22:36.136Z,108.55
2023-04-07T22:25:07.623Z,131.43
2023-04-07T22:27:36.665Z,106.28
2023-04-07T22:30:03.832Z,121.82
2023-04-07T22:32:30.444Z,156.57
2023-04-07T22:34:58.126Z,72.22
2023-04-07T22:37:24.676Z,116.68
2023-04-07T22:39:51.408Z,87.13
2023-04-07T22:42:17.904Z,102.43
2023-04-07T22:44:46.721Z,113.13
2023-04-07T22:47:18.588Z,111.03
2023-04-07T22:49:45.500Z,46.92
2023-04-07T22:52:14.226Z,75.47
2023-04-07T22:54:45.953Z,113.10
2023-04-07T22:57:17.000Z,118.97
2023-04-07T22:59:46.013Z,102.15
2023-04-07T23:02:15.092Z,45.78
2023-04-07T23:04:41.821Z,104.10
2023-04-07T23:07:08.580Z,60.97
2023-04-07T23:09:37.506Z,70.90
2023-04-07T23:12:04.446Z,34.33
2023-04-07T23:14:31.227Z,68.20
2023-04-07T23:16:57.910Z,59.83
2023-04-07T23:19:27.232Z,47.63
2023-04-07T23:21:53.701Z,30.73
2023-04-07T23:24:20.536Z,37.08
2023-04-07T23:26:46.993Z,72.00
2023-04-07T23:29:13.783Z,22.52
2023-04-07T23:31:40.679Z,39.83
2023-04-07T23:34:07.189Z,65.82
2023-04-07T23:36:35.897Z,47.05
2023-04-07T23:39:04.673Z,41.28
2023-04-07T23:41:31.835Z,31.27
2023-04-07T23:43:58.308Z,19.95
2023-04-07T23:46:24.959Z,57.15
2023-04-07T23:48:52.074Z,50.67
2023-04-07T23:51:23.267Z,41.03
2023-04-07T23:53:52.153Z,40.38
2023-04-07T23:56:18.635Z,64.65
2023-04-07T23:58:45.413Z,28.60
